sensor_id;sensor_type;location;lat;lon;timestamp;P1;durP1;ratioP1;P2;durP2;ratioP2
61527;SDS011;47395;42.032;-8.634;2024-02-26T00:00:20;1.50;;;1.13;;
61527;SDS011;47395;42.032;-8.634;2024-02-26T00:02:21;0.50;;;0.50;;
61527;SDS011;47395;42.032;-8.634;2024-02-26T00:04:22;1.42;;;1.33;;
61527;SDS011;47395;42.032;-8.634;2024-02-26T00:06:23;0.80;;;0.80;;
61527;SDS011;47395;42.032;-8.634;2024-02-26T00:08:27;0.65;;;0.65;;
61527;SDS011;47395;42.032;-8.634;2024-02-26T00:10:29;1.25;;;1.20;;
61527;SDS011;47395;42.032;-8.634;2024-02-26T00:12:30;5.38;;;3.33;;
61527;SDS011;47395;42.032;-8.634;2024-02-26T00:14:31;0.55;;;0.55;;
61527;SDS011;47395;42.032;-8.634;2024-02-26T00:16:32;1.65;;;0.47;;
61527;SDS011;47395;42.032;-8.634;2024-02-26T00:18:35;0.50;;;0.50;;
61527;SDS011;47395;42.032;-8.634;2024-02-26T00:20:35;0.50;;;0.50;;
61527;SDS011;47395;42.032;-8.634;2024-02-26T00:22:38;0.60;;;0.60;;
61527;SDS011;47395;42.032;-8.634;2024-02-26T00:24:39;0.70;;;0.70;;
61527;SDS011;47395;42.032;-8.634;2024-02-26T00:26:40;1.95;;;1.25;;
61527;SDS011;47395;42.032;-8.634;2024-02-26T00:28:41;1.20;;;1.20;;
61527;SDS011;47395;42.032;-8.634;2024-02-26T00:30:42;0.50;;;0.50;;
61527;SDS011;47395;42.032;-8.634;2024-02-26T00:32:42;0.40;;;0.40;;
61527;SDS011;47395;42.032;-8.634;2024-02-26T00:34:43;0.50;;;0.50;;
61527;SDS011;47395;42.032;-8.634;2024-02-26T00:36:44;0.60;;;0.60;;
61527;SDS011;47395;42.032;-8.634;2024-02-26T00:38:45;0.57;;;0.57;;
61527;SDS011;47395;42.032;-8.634;2024-02-26T00:40:50;2.20;;;2.05;;
61527;SDS011;47395;42.032;-8.634;2024-02-26T00:42:52;0.85;;;0.85;;
61527;SDS011;47395;42.032;-8.634;2024-02-26T00:44:53;1.02;;;1.02;;
61527;SDS011;47395;42.032;-8.634;2024-02-26T00:46:53;1.30;;;1.20;;
61527;SDS011;47395;42.032;-8.634;2024-02-26T00:48:56;0.50;;;0.50;;
61527;SDS011;47395;42.032;-8.634;2024-02-26T00:50:57;1.70;;;1.60;;
61527;SDS011;47395;42.032;-8.634;2024-02-26T00:52:58;0.63;;;0.63;;
61527;SDS011;47395;42.032;-8.634;2024-02-26T00:54:59;0.90;;;0.90;;
61527;SDS011;47395;42.032;-8.634;2024-02-26T00:57:00;0.75;;;0.75;;
61527;SDS011;47395;42.032;-8.634;2024-02-26T00:59:01;0.60;;;0.60;;
61527;SDS011;47395;42.032;-8.634;2024-02-26T01:01:05;1.25;;;0.80;;
61527;SDS011;47395;42.032;-8.634;2024-02-26T01:03:06;0.50;;;0.50;;
61527;SDS011;47395;42.032;-8.634;2024-02-26T01:05:08;0.40;;;0.40;;
61527;SDS011;47395;42.032;-8.634;2024-02-26T01:07:13;1.20;;;1.20;;
61527;SDS011;47395;42.032;-8.634;2024-02-26T01:09:21;0.50;;;0.50;;
61527;SDS011;47395;42.032;-8.634;2024-02-26T01:11:23;2.45;;;2.35;;
61527;SDS011;47395;42.032;-8.634;2024-02-26T01:13:24;1.05;;;1.05;;
61527;SDS011;47395;42.032;-8.634;2024-02-26T01:15:25;0.65;;;0.65;;
61527;SDS011;47395;42.032;-8.634;2024-02-26T01:17:29;0.57;;;0.57;;
61527;SDS011;47395;42.032;-8.634;2024-02-26T01:19:31;1.02;;;1.02;;
61527;SDS011;47395;42.032;-8.634;2024-02-26T01:21:32;0.90;;;0.90;;
61527;SDS011;47395;42.032;-8.634;2024-02-26T01:23:33;1.50;;;1.40;;
61527;SDS011;47395;42.032;-8.634;2024-02-26T01:25:33;1.05;;;1.05;;
61527;SDS011;47395;42.032;-8.634;2024-02-26T01:27:38;0.70;;;0.70;;
61527;SDS011;47395;42.032;-8.634;2024-02-26T01:29:44;0.50;;;0.50;;
61527;SDS011;47395;42.032;-8.634;2024-02-26T01:31:46;0.70;;;0.70;;
61527;SDS011;47395;42.032;-8.634;2024-02-26T01:33:47;3.85;;;3.22;;
61527;SDS011;47395;42.032;-8.634;2024-02-26T01:35:47;1.67;;;1.58;;
61527;SDS011;47395;42.032;-8.634;2024-02-26T01:37:48;1.33;;;1.33;;
61527;SDS011;47395;42.032;-8.634;2024-02-26T01:39:49;0.50;;;0.50;;
61527;SDS011;47395;42.032;-8.634;2024-02-26T01:41:50;0.70;;;0.70;;
61527;SDS011;47395;42.032;-8.634;2024-02-26T01:43:52;0.98;;;0.98;;
61527;SDS011;47395;42.032;-8.634;2024-02-26T01:45:53;8.48;;;3.15;;
61527;SDS011;47395;42.032;-8.634;2024-02-26T01:47:54;0.80;;;0.80;;
61527;SDS011;47395;42.032;-8.634;2024-02-26T01:49:54;8.50;;;2.72;;
61527;SDS011;47395;42.032;-8.634;2024-02-26T01:51:56;0.50;;;0.50;;
61527;SDS011;47395;42.032;-8.634;2024-02-26T01:54:00;5.10;;;2.15;;
61527;SDS011;47395;42.032;-8.634;2024-02-26T01:56:02;2.63;;;1.70;;
61527;SDS011;47395;42.032;-8.634;2024-02-26T01:58:04;0.50;;;0.50;;
61527;SDS011;47395;42.032;-8.634;2024-02-26T02:00:07;1.45;;;1.45;;
61527;SDS011;47395;42.032;-8.634;2024-02-26T02:02:09;2.08;;;1.92;;
61527;SDS011;47395;42.032;-8.634;2024-02-26T02:04:10;2.42;;;2.33;;
61527;SDS011;47395;42.032;-8.634;2024-02-26T02:06:12;0.98;;;0.98;;
61527;SDS011;47395;42.032;-8.634;2024-02-26T02:08:14;0.55;;;0.55;;
61527;SDS011;47395;42.032;-8.634;2024-02-26T02:10:17;0.60;;;0.60;;
61527;SDS011;47395;42.032;-8.634;2024-02-26T02:12:23;14.00;;;3.00;;
61527;SDS011;47395;42.032;-8.634;2024-02-26T02:14:24;0.70;;;0.70;;
61527;SDS011;47395;42.032;-8.634;2024-02-26T02:16:25;0.50;;;0.50;;
61527;SDS011;47395;42.032;-8.634;2024-02-26T02:18:26;0.60;;;0.60;;
61527;SDS011;47395;42.032;-8.634;2024-02-26T02:20:31;1.63;;;1.63;;
61527;SDS011;47395;42.032;-8.634;2024-02-26T02:22:33;6.50;;;2.60;;
61527;SDS011;47395;42.032;-8.634;2024-02-26T02:24:34;0.77;;;0.77;;
61527;SDS011;47395;42.032;-8.634;2024-02-26T02:26:34;2.28;;;2.08;;
61527;SDS011;47395;42.032;-8.634;2024-02-26T02:28:35;0.50;;;0.50;;
61527;SDS011;47395;42.032;-8.634;2024-02-26T02:30:37;0.73;;;0.73;;
61527;SDS011;47395;42.032;-8.634;2024-02-26T02:32:39;1.35;;;1.30;;
61527;SDS011;47395;42.032;-8.634;2024-02-26T02:34:41;2.53;;;0.88;;
61527;SDS011;47395;42.032;-8.634;2024-02-26T02:36:51;0.50;;;0.50;;
61527;SDS011;47395;42.032;-8.634;2024-02-26T02:38:52;3.60;;;2.95;;
61527;SDS011;47395;42.032;-8.634;2024-02-26T02:40:54;0.55;;;0.55;;
61527;SDS011;47395;42.032;-8.634;2024-02-26T02:42:54;0.60;;;0.60;;
61527;SDS011;47395;42.032;-8.634;2024-02-26T02:44:55;1.40;;;1.40;;
61527;SDS011;47395;42.032;-8.634;2024-02-26T02:46:56;3.40;;;1.13;;
61527;SDS011;47395;42.032;-8.634;2024-02-26T02:48:58;0.50;;;0.50;;
61527;SDS011;47395;42.032;-8.634;2024-02-26T02:50:59;0.52;;;0.52;;
61527;SDS011;47395;42.032;-8.634;2024-02-26T02:53:00;0.60;;;0.60;;
61527;SDS011;47395;42.032;-8.634;2024-02-26T02:55:01;1.60;;;1.50;;
61527;SDS011;47395;42.032;-8.634;2024-02-26T02:57:03;0.50;;;0.50;;
61527;SDS011;47395;42.032;-8.634;2024-02-26T02:59:04;3.58;;;2.85;;
61527;SDS011;47395;42.032;-8.634;2024-02-26T03:01:04;7.47;;;2.25;;
61527;SDS011;47395;42.032;-8.634;2024-02-26T03:03:06;6.95;;;2.90;;
61527;SDS011;47395;42.032;-8.634;2024-02-26T03:05:08;0.80;;;0.60;;
61527;SDS011;47395;42.032;-8.634;2024-02-26T03:07:10;0.50;;;0.50;;
61527;SDS011;47395;42.032;-8.634;2024-02-26T03:09:11;0.80;;;0.80;;
61527;SDS011;47395;42.032;-8.634;2024-02-26T03:11:13;1.05;;;1.05;;
61527;SDS011;47395;42.032;-8.634;2024-02-26T03:13:17;1.90;;;1.80;;
61527;SDS011;47395;42.032;-8.634;2024-02-26T03:15:19;0.50;;;0.50;;
61527;SDS011;47395;42.032;-8.634;2024-02-26T03:17:20;0.73;;;0.73;;
61527;SDS011;47395;42.032;-8.634;2024-02-26T03:19:24;0.50;;;0.50;;
61527;SDS011;47395;42.032;-8.634;2024-02-26T03:21:27;0.50;;;0.50;;
61527;SDS011;47395;42.032;-8.634;2024-02-26T03:23:28;1.13;;;1.13;;
61527;SDS011;47395;42.032;-8.634;2024-02-26T03:25:31;0.60;;;0.60;;
61527;SDS011;47395;42.032;-8.634;2024-02-26T03:27:31;5.60;;;1.95;;
61527;SDS011;47395;42.032;-8.634;2024-02-26T03:29:37;0.93;;;0.93;;
61527;SDS011;47395;42.032;-8.634;2024-02-26T03:31:39;1.42;;;1.42;;
61527;SDS011;47395;42.032;-8.634;2024-02-26T03:33:42;1.80;;;1.75;;
61527;SDS011;47395;42.032;-8.634;2024-02-26T03:35:43;0.90;;;0.90;;
61527;SDS011;47395;42.032;-8.634;2024-02-26T03:37:46;0.50;;;0.50;;
61527;SDS011;47395;42.032;-8.634;2024-02-26T03:39:49;0.70;;;0.70;;
61527;SDS011;47395;42.032;-8.634;2024-02-26T03:41:49;1.08;;;1.08;;
61527;SDS011;47395;42.032;-8.634;2024-02-26T03:43:50;0.57;;;0.57;;
61527;SDS011;47395;42.032;-8.634;2024-02-26T03:45:51;0.55;;;0.55;;
61527;SDS011;47395;42.032;-8.634;2024-02-26T03:47:52;1.15;;;1.15;;
61527;SDS011;47395;42.032;-8.634;2024-02-26T03:49:52;1.05;;;1.05;;
61527;SDS011;47395;42.032;-8.634;2024-02-26T03:51:54;0.70;;;0.70;;
61527;SDS011;47395;42.032;-8.634;2024-02-26T03:53:55;1.15;;;1.15;;
61527;SDS011;47395;42.032;-8.634;2024-02-26T03:55:56;0.77;;;0.77;;
61527;SDS011;47395;42.032;-8.634;2024-02-26T03:57:57;0.60;;;0.60;;
61527;SDS011;47395;42.032;-8.634;2024-02-26T03:59:58;4.38;;;1.65;;
61527;SDS011;47395;42.032;-8.634;2024-02-26T04:01:58;0.63;;;0.63;;
61527;SDS011;47395;42.032;-8.634;2024-02-26T04:04:02;0.60;;;0.60;;
61527;SDS011;47395;42.032;-8.634;2024-02-26T04:06:03;0.55;;;0.55;;
61527;SDS011;47395;42.032;-8.634;2024-02-26T04:08:05;0.55;;;0.55;;
61527;SDS011;47395;42.032;-8.634;2024-02-26T04:10:09;0.60;;;0.60;;
61527;SDS011;47395;42.032;-8.634;2024-02-26T04:12:09;1.60;;;1.58;;
61527;SDS011;47395;42.032;-8.634;2024-02-26T04:14:10;2.10;;;2.00;;
61527;SDS011;47395;42.032;-8.634;2024-02-26T04:16:12;0.80;;;0.80;;
61527;SDS011;47395;42.032;-8.634;2024-02-26T04:18:13;1.27;;;1.27;;
61527;SDS011;47395;42.032;-8.634;2024-02-26T04:20:15;1.63;;;1.52;;
61527;SDS011;47395;42.032;-8.634;2024-02-26T04:22:17;0.77;;;0.77;;
61527;SDS011;47395;42.032;-8.634;2024-02-26T04:24:18;0.50;;;0.50;;
61527;SDS011;47395;42.032;-8.634;2024-02-26T04:26:18;0.80;;;0.80;;
61527;SDS011;47395;42.032;-8.634;2024-02-26T04:28:20;0.50;;;0.50;;
61527;SDS011;47395;42.032;-8.634;2024-02-26T04:30:21;0.88;;;0.88;;
61527;SDS011;47395;42.032;-8.634;2024-02-26T04:32:21;1.15;;;1.15;;
61527;SDS011;47395;42.032;-8.634;2024-02-26T04:34:22;0.60;;;0.60;;
61527;SDS011;47395;42.032;-8.634;2024-02-26T04:36:25;0.65;;;0.65;;
61527;SDS011;47395;42.032;-8.634;2024-02-26T04:38:26;0.50;;;0.50;;
61527;SDS011;47395;42.032;-8.634;2024-02-26T04:40:27;0.60;;;0.60;;
61527;SDS011;47395;42.032;-8.634;2024-02-26T04:42:27;1.50;;;1.40;;
61527;SDS011;47395;42.032;-8.634;2024-02-26T04:44:28;12.85;;;1.38;;
61527;SDS011;47395;42.032;-8.634;2024-02-26T04:46:29;11.27;;;4.65;;
61527;SDS011;47395;42.032;-8.634;2024-02-26T04:48:30;0.52;;;0.52;;
61527;SDS011;47395;42.032;-8.634;2024-02-26T04:50:31;1.02;;;1.02;;
61527;SDS011;47395;42.032;-8.634;2024-02-26T04:52:31;1.05;;;1.05;;
61527;SDS011;47395;42.032;-8.634;2024-02-26T04:54:33;0.73;;;0.73;;
61527;SDS011;47395;42.032;-8.634;2024-02-26T04:56:34;1.08;;;1.08;;
61527;SDS011;47395;42.032;-8.634;2024-02-26T04:58:36;0.70;;;0.70;;
61527;SDS011;47395;42.032;-8.634;2024-02-26T05:00:38;0.93;;;0.93;;
61527;SDS011;47395;42.032;-8.634;2024-02-26T05:04:49;1.30;;;1.30;;
61527;SDS011;47395;42.032;-8.634;2024-02-26T05:06:51;0.60;;;0.60;;
61527;SDS011;47395;42.032;-8.634;2024-02-26T05:08:52;0.95;;;0.95;;
61527;SDS011;47395;42.032;-8.634;2024-02-26T05:10:53;0.70;;;0.70;;
61527;SDS011;47395;42.032;-8.634;2024-02-26T05:12:53;1.08;;;1.08;;
61527;SDS011;47395;42.032;-8.634;2024-02-26T05:14:54;0.85;;;0.85;;
61527;SDS011;47395;42.032;-8.634;2024-02-26T05:16:55;0.73;;;0.73;;
61527;SDS011;47395;42.032;-8.634;2024-02-26T05:18:56;1.10;;;1.08;;
61527;SDS011;47395;42.032;-8.634;2024-02-26T05:20:57;0.52;;;0.52;;
61527;SDS011;47395;42.032;-8.634;2024-02-26T05:22:58;0.75;;;0.75;;
61527;SDS011;47395;42.032;-8.634;2024-02-26T05:24:59;0.60;;;0.60;;
61527;SDS011;47395;42.032;-8.634;2024-02-26T05:27:00;0.63;;;0.63;;
61527;SDS011;47395;42.032;-8.634;2024-02-26T05:29:00;0.80;;;0.80;;
61527;SDS011;47395;42.032;-8.634;2024-02-26T05:31:01;0.50;;;0.50;;
61527;SDS011;47395;42.032;-8.634;2024-02-26T05:33:02;0.70;;;0.70;;
61527;SDS011;47395;42.032;-8.634;2024-02-26T05:35:03;2.78;;;2.58;;
61527;SDS011;47395;42.032;-8.634;2024-02-26T05:37:04;0.52;;;0.52;;
61527;SDS011;47395;42.032;-8.634;2024-02-26T05:39:04;0.50;;;0.50;;
61527;SDS011;47395;42.032;-8.634;2024-02-26T05:41:05;0.80;;;0.80;;
61527;SDS011;47395;42.032;-8.634;2024-02-26T05:43:06;1.73;;;1.65;;
61527;SDS011;47395;42.032;-8.634;2024-02-26T05:45:07;0.70;;;0.70;;
61527;SDS011;47395;42.032;-8.634;2024-02-26T05:47:08;0.70;;;0.70;;
61527;SDS011;47395;42.032;-8.634;2024-02-26T05:49:08;1.52;;;1.52;;
61527;SDS011;47395;42.032;-8.634;2024-02-26T05:51:09;0.65;;;0.65;;
61527;SDS011;47395;42.032;-8.634;2024-02-26T05:53:10;1.60;;;1.13;;
61527;SDS011;47395;42.032;-8.634;2024-02-26T05:55:11;3.17;;;1.95;;
61527;SDS011;47395;42.032;-8.634;2024-02-26T05:57:13;0.80;;;0.80;;
61527;SDS011;47395;42.032;-8.634;2024-02-26T05:59:13;0.70;;;0.70;;
61527;SDS011;47395;42.032;-8.634;2024-02-26T06:01:16;1.02;;;1.02;;
61527;SDS011;47395;42.032;-8.634;2024-02-26T06:03:20;0.70;;;0.70;;
61527;SDS011;47395;42.032;-8.634;2024-02-26T06:05:20;0.73;;;0.73;;
61527;SDS011;47395;42.032;-8.634;2024-02-26T06:07:21;0.50;;;0.50;;
61527;SDS011;47395;42.032;-8.634;2024-02-26T06:09:22;0.85;;;0.85;;
61527;SDS011;47395;42.032;-8.634;2024-02-26T06:11:23;0.50;;;0.50;;
61527;SDS011;47395;42.032;-8.634;2024-02-26T06:13:24;0.50;;;0.50;;
61527;SDS011;47395;42.032;-8.634;2024-02-26T06:15:24;0.70;;;0.70;;
61527;SDS011;47395;42.032;-8.634;2024-02-26T06:17:25;2.30;;;1.67;;
61527;SDS011;47395;42.032;-8.634;2024-02-26T06:19:26;0.55;;;0.55;;
61527;SDS011;47395;42.032;-8.634;2024-02-26T06:21:26;0.80;;;0.80;;
61527;SDS011;47395;42.032;-8.634;2024-02-26T06:23:27;1.02;;;1.02;;
61527;SDS011;47395;42.032;-8.634;2024-02-26T06:25:28;0.60;;;0.60;;
61527;SDS011;47395;42.032;-8.634;2024-02-26T06:27:29;0.50;;;0.50;;
61527;SDS011;47395;42.032;-8.634;2024-02-26T06:29:29;0.50;;;0.50;;
61527;SDS011;47395;42.032;-8.634;2024-02-26T06:31:30;4.57;;;3.00;;
61527;SDS011;47395;42.032;-8.634;2024-02-26T06:33:31;1.98;;;1.50;;
61527;SDS011;47395;42.032;-8.634;2024-02-26T06:35:31;2.13;;;1.15;;
61527;SDS011;47395;42.032;-8.634;2024-02-26T06:37:32;0.60;;;0.60;;
61527;SDS011;47395;42.032;-8.634;2024-02-26T06:39:34;0.60;;;0.60;;
61527;SDS011;47395;42.032;-8.634;2024-02-26T06:41:34;0.68;;;0.68;;
61527;SDS011;47395;42.032;-8.634;2024-02-26T06:43:36;0.60;;;0.60;;
61527;SDS011;47395;42.032;-8.634;2024-02-26T06:45:38;0.60;;;0.60;;
61527;SDS011;47395;42.032;-8.634;2024-02-26T06:47:38;0.50;;;0.50;;
61527;SDS011;47395;42.032;-8.634;2024-02-26T06:49:39;0.70;;;0.70;;
61527;SDS011;47395;42.032;-8.634;2024-02-26T06:51:40;0.60;;;0.60;;
61527;SDS011;47395;42.032;-8.634;2024-02-26T06:53:40;1.38;;;1.35;;
61527;SDS011;47395;42.032;-8.634;2024-02-26T06:55:41;0.70;;;0.70;;
61527;SDS011;47395;42.032;-8.634;2024-02-26T06:57:42;0.60;;;0.60;;
61527;SDS011;47395;42.032;-8.634;2024-02-26T06:59:43;0.50;;;0.50;;
61527;SDS011;47395;42.032;-8.634;2024-02-26T07:01:47;0.50;;;0.50;;
61527;SDS011;47395;42.032;-8.634;2024-02-26T07:03:49;0.45;;;0.45;;
61527;SDS011;47395;42.032;-8.634;2024-02-26T07:05:51;0.60;;;0.60;;
61527;SDS011;47395;42.032;-8.634;2024-02-26T07:07:53;0.60;;;0.60;;
61527;SDS011;47395;42.032;-8.634;2024-02-26T07:09:54;1.00;;;0.80;;
61527;SDS011;47395;42.032;-8.634;2024-02-26T07:11:55;0.52;;;0.52;;
61527;SDS011;47395;42.032;-8.634;2024-02-26T07:13:56;0.60;;;0.60;;
61527;SDS011;47395;42.032;-8.634;2024-02-26T07:15:57;0.52;;;0.52;;
61527;SDS011;47395;42.032;-8.634;2024-02-26T07:17:57;0.60;;;0.60;;
61527;SDS011;47395;42.032;-8.634;2024-02-26T07:20:03;0.70;;;0.70;;
61527;SDS011;47395;42.032;-8.634;2024-02-26T07:22:08;0.75;;;0.75;;
61527;SDS011;47395;42.032;-8.634;2024-02-26T07:24:08;1.15;;;1.15;;
61527;SDS011;47395;42.032;-8.634;2024-02-26T07:26:09;0.50;;;0.50;;
61527;SDS011;47395;42.032;-8.634;2024-02-26T07:28:12;0.60;;;0.60;;
61527;SDS011;47395;42.032;-8.634;2024-02-26T07:30:12;0.60;;;0.60;;
61527;SDS011;47395;42.032;-8.634;2024-02-26T07:32:14;0.50;;;0.50;;
61527;SDS011;47395;42.032;-8.634;2024-02-26T07:34:14;1.15;;;1.15;;
61527;SDS011;47395;42.032;-8.634;2024-02-26T07:36:15;0.60;;;0.60;;
61527;SDS011;47395;42.032;-8.634;2024-02-26T07:38:16;0.60;;;0.60;;
61527;SDS011;47395;42.032;-8.634;2024-02-26T07:40:21;0.63;;;0.63;;
61527;SDS011;47395;42.032;-8.634;2024-02-26T07:42:22;0.50;;;0.50;;
61527;SDS011;47395;42.032;-8.634;2024-02-26T07:44:23;0.50;;;0.50;;
61527;SDS011;47395;42.032;-8.634;2024-02-26T07:46:23;0.60;;;0.60;;
61527;SDS011;47395;42.032;-8.634;2024-02-26T07:48:24;0.50;;;0.50;;
61527;SDS011;47395;42.032;-8.634;2024-02-26T07:50:25;2.00;;;0.70;;
61527;SDS011;47395;42.032;-8.634;2024-02-26T07:52:25;0.95;;;0.63;;
61527;SDS011;47395;42.032;-8.634;2024-02-26T07:54:26;0.57;;;0.57;;
61527;SDS011;47395;42.032;-8.634;2024-02-26T07:56:27;0.50;;;0.50;;
61527;SDS011;47395;42.032;-8.634;2024-02-26T07:58:27;3.20;;;0.95;;
61527;SDS011;47395;42.032;-8.634;2024-02-26T08:00:28;0.50;;;0.50;;
61527;SDS011;47395;42.032;-8.634;2024-02-26T08:02:29;0.70;;;0.70;;
61527;SDS011;47395;42.032;-8.634;2024-02-26T08:04:30;0.50;;;0.50;;
61527;SDS011;47395;42.032;-8.634;2024-02-26T08:06:30;0.60;;;0.60;;
61527;SDS011;47395;42.032;-8.634;2024-02-26T08:08:31;1.35;;;1.35;;
61527;SDS011;47395;42.032;-8.634;2024-02-26T08:10:32;0.50;;;0.50;;
61527;SDS011;47395;42.032;-8.634;2024-02-26T08:12:33;0.60;;;0.60;;
61527;SDS011;47395;42.032;-8.634;2024-02-26T08:14:33;0.57;;;0.57;;
61527;SDS011;47395;42.032;-8.634;2024-02-26T08:16:34;0.47;;;0.47;;
61527;SDS011;47395;42.032;-8.634;2024-02-26T08:18:35;0.50;;;0.50;;
61527;SDS011;47395;42.032;-8.634;2024-02-26T08:20:36;1.88;;;1.70;;
61527;SDS011;47395;42.032;-8.634;2024-02-26T08:22:37;0.63;;;0.63;;
61527;SDS011;47395;42.032;-8.634;2024-02-26T08:24:39;0.50;;;0.50;;
61527;SDS011;47395;42.032;-8.634;2024-02-26T08:26:40;0.50;;;0.50;;
61527;SDS011;47395;42.032;-8.634;2024-02-26T08:28:41;0.50;;;0.50;;
61527;SDS011;47395;42.032;-8.634;2024-02-26T08:30:42;0.40;;;0.40;;
61527;SDS011;47395;42.032;-8.634;2024-02-26T08:32:43;0.50;;;0.50;;
61527;SDS011;47395;42.032;-8.634;2024-02-26T08:34:44;0.85;;;0.85;;
61527;SDS011;47395;42.032;-8.634;2024-02-26T08:36:45;1.23;;;1.23;;
61527;SDS011;47395;42.032;-8.634;2024-02-26T08:38:46;0.47;;;0.47;;
61527;SDS011;47395;42.032;-8.634;2024-02-26T08:40:46;0.50;;;0.50;;
61527;SDS011;47395;42.032;-8.634;2024-02-26T08:42:47;0.43;;;0.43;;
61527;SDS011;47395;42.032;-8.634;2024-02-26T08:44:49;0.65;;;0.65;;
61527;SDS011;47395;42.032;-8.634;2024-02-26T08:46:49;0.50;;;0.50;;
61527;SDS011;47395;42.032;-8.634;2024-02-26T08:48:51;0.40;;;0.40;;
61527;SDS011;47395;42.032;-8.634;2024-02-26T08:50:52;0.77;;;0.77;;
61527;SDS011;47395;42.032;-8.634;2024-02-26T08:52:53;0.50;;;0.50;;
61527;SDS011;47395;42.032;-8.634;2024-02-26T08:54:54;0.50;;;0.50;;
61527;SDS011;47395;42.032;-8.634;2024-02-26T08:56:54;0.50;;;0.50;;
61527;SDS011;47395;42.032;-8.634;2024-02-26T08:58:55;3.35;;;1.35;;
61527;SDS011;47395;42.032;-8.634;2024-02-26T09:00:58;0.50;;;0.50;;
61527;SDS011;47395;42.032;-8.634;2024-02-26T09:03:00;0.50;;;0.50;;
61527;SDS011;47395;42.032;-8.634;2024-02-26T09:05:02;0.80;;;0.80;;
61527;SDS011;47395;42.032;-8.634;2024-02-26T09:07:03;0.60;;;0.60;;
61527;SDS011;47395;42.032;-8.634;2024-02-26T09:09:04;0.75;;;0.75;;
61527;SDS011;47395;42.032;-8.634;2024-02-26T09:11:04;1.60;;;1.50;;
61527;SDS011;47395;42.032;-8.634;2024-02-26T09:13:06;0.40;;;0.40;;
61527;SDS011;47395;42.032;-8.634;2024-02-26T09:15:07;0.63;;;0.63;;
61527;SDS011;47395;42.032;-8.634;2024-02-26T09:17:07;0.68;;;0.68;;
61527;SDS011;47395;42.032;-8.634;2024-02-26T09:19:08;0.40;;;0.40;;
61527;SDS011;47395;42.032;-8.634;2024-02-26T09:21:09;0.55;;;0.55;;
61527;SDS011;47395;42.032;-8.634;2024-02-26T09:23:10;0.60;;;0.60;;
61527;SDS011;47395;42.032;-8.634;2024-02-26T09:25:11;1.05;;;0.98;;
61527;SDS011;47395;42.032;-8.634;2024-02-26T09:27:11;0.50;;;0.50;;
61527;SDS011;47395;42.032;-8.634;2024-02-26T09:29:12;0.45;;;0.45;;
61527;SDS011;47395;42.032;-8.634;2024-02-26T09:31:15;0.50;;;0.50;;
61527;SDS011;47395;42.032;-8.634;2024-02-26T09:33:17;0.60;;;0.60;;
61527;SDS011;47395;42.032;-8.634;2024-02-26T09:35:18;0.52;;;0.52;;
61527;SDS011;47395;42.032;-8.634;2024-02-26T09:37:19;0.40;;;0.40;;
61527;SDS011;47395;42.032;-8.634;2024-02-26T09:39:20;1.67;;;1.58;;
61527;SDS011;47395;42.032;-8.634;2024-02-26T09:41:22;1.95;;;0.98;;
61527;SDS011;47395;42.032;-8.634;2024-02-26T09:43:23;0.40;;;0.40;;
61527;SDS011;47395;42.032;-8.634;2024-02-26T09:45:25;0.93;;;0.93;;
61527;SDS011;47395;42.032;-8.634;2024-02-26T09:47:30;0.40;;;0.40;;
61527;SDS011;47395;42.032;-8.634;2024-02-26T09:49:33;0.50;;;0.50;;
61527;SDS011;47395;42.032;-8.634;2024-02-26T09:51:34;0.43;;;0.43;;
61527;SDS011;47395;42.032;-8.634;2024-02-26T09:53:36;0.40;;;0.40;;
61527;SDS011;47395;42.032;-8.634;2024-02-26T09:55:40;0.70;;;0.70;;
61527;SDS011;47395;42.032;-8.634;2024-02-26T09:57:47;0.93;;;0.93;;
61527;SDS011;47395;42.032;-8.634;2024-02-26T09:59:49;1.10;;;1.05;;
61527;SDS011;47395;42.032;-8.634;2024-02-26T10:01:51;0.85;;;0.85;;
61527;SDS011;47395;42.032;-8.634;2024-02-26T10:03:55;0.68;;;0.68;;
61527;SDS011;47395;42.032;-8.634;2024-02-26T10:05:57;1.25;;;1.23;;
61527;SDS011;47395;42.032;-8.634;2024-02-26T10:07:58;0.30;;;0.30;;
61527;SDS011;47395;42.032;-8.634;2024-02-26T10:10:01;0.30;;;0.30;;
61527;SDS011;47395;42.032;-8.634;2024-02-26T10:12:05;0.32;;;0.32;;
61527;SDS011;47395;42.032;-8.634;2024-02-26T10:14:07;0.30;;;0.30;;
61527;SDS011;47395;42.032;-8.634;2024-02-26T10:16:09;0.65;;;0.65;;
61527;SDS011;47395;42.032;-8.634;2024-02-26T10:18:10;0.40;;;0.40;;
61527;SDS011;47395;42.032;-8.634;2024-02-26T10:20:11;0.28;;;0.28;;
61527;SDS011;47395;42.032;-8.634;2024-02-26T10:22:12;0.30;;;0.30;;
61527;SDS011;47395;42.032;-8.634;2024-02-26T10:24:14;0.40;;;0.40;;
61527;SDS011;47395;42.032;-8.634;2024-02-26T10:26:15;0.82;;;0.82;;
61527;SDS011;47395;42.032;-8.634;2024-02-26T10:28:16;0.95;;;0.95;;
61527;SDS011;47395;42.032;-8.634;2024-02-26T10:30:18;0.40;;;0.40;;
61527;SDS011;47395;42.032;-8.634;2024-02-26T10:32:19;0.30;;;0.30;;
61527;SDS011;47395;42.032;-8.634;2024-02-26T10:34:20;0.30;;;0.30;;
61527;SDS011;47395;42.032;-8.634;2024-02-26T10:36:22;0.38;;;0.38;;
61527;SDS011;47395;42.032;-8.634;2024-02-26T10:38:23;0.65;;;0.65;;
61527;SDS011;47395;42.032;-8.634;2024-02-26T10:40:24;0.30;;;0.30;;
61527;SDS011;47395;42.032;-8.634;2024-02-26T10:42:25;0.35;;;0.35;;
61527;SDS011;47395;42.032;-8.634;2024-02-26T10:44:27;0.63;;;0.63;;
61527;SDS011;47395;42.032;-8.634;2024-02-26T10:46:27;0.20;;;0.20;;
61527;SDS011;47395;42.032;-8.634;2024-02-26T10:48:29;1.65;;;1.10;;
61527;SDS011;47395;42.032;-8.634;2024-02-26T10:50:30;0.20;;;0.20;;
61527;SDS011;47395;42.032;-8.634;2024-02-26T10:52:31;2.00;;;1.33;;
61527;SDS011;47395;42.032;-8.634;2024-02-26T10:54:33;0.55;;;0.47;;
61527;SDS011;47395;42.032;-8.634;2024-02-26T10:56:35;1.73;;;0.68;;
61527;SDS011;47395;42.032;-8.634;2024-02-26T10:58:38;1.17;;;0.50;;
61527;SDS011;47395;42.032;-8.634;2024-02-26T11:00:39;0.30;;;0.30;;
61527;SDS011;47395;42.032;-8.634;2024-02-26T11:02:40;4.18;;;0.52;;
61527;SDS011;47395;42.032;-8.634;2024-02-26T11:04:42;9.95;;;0.95;;
61527;SDS011;47395;42.032;-8.634;2024-02-26T11:06:44;0.25;;;0.25;;
61527;SDS011;47395;42.032;-8.634;2024-02-26T11:08:47;0.30;;;0.30;;
61527;SDS011;47395;42.032;-8.634;2024-02-26T11:10:52;7.70;;;0.68;;
61527;SDS011;47395;42.032;-8.634;2024-02-26T11:12:53;0.30;;;0.30;;
61527;SDS011;47395;42.032;-8.634;2024-02-26T11:14:55;1.05;;;1.05;;
61527;SDS011;47395;42.032;-8.634;2024-02-26T11:16:56;1.25;;;1.25;;
61527;SDS011;47395;42.032;-8.634;2024-02-26T11:18:58;1.20;;;1.00;;
61527;SDS011;47395;42.032;-8.634;2024-02-26T11:21:00;0.43;;;0.43;;
61527;SDS011;47395;42.032;-8.634;2024-02-26T11:23:02;0.28;;;0.28;;
61527;SDS011;47395;42.032;-8.634;2024-02-26T11:25:03;0.35;;;0.35;;
61527;SDS011;47395;42.032;-8.634;2024-02-26T11:27:04;0.40;;;0.40;;
61527;SDS011;47395;42.032;-8.634;2024-02-26T11:29:07;0.80;;;0.40;;
61527;SDS011;47395;42.032;-8.634;2024-02-26T11:31:10;0.30;;;0.30;;
61527;SDS011;47395;42.032;-8.634;2024-02-26T11:33:13;1.85;;;1.20;;
61527;SDS011;47395;42.032;-8.634;2024-02-26T11:35:14;1.30;;;0.47;;
61527;SDS011;47395;42.032;-8.634;2024-02-26T11:37:17;9.55;;;3.33;;
61527;SDS011;47395;42.032;-8.634;2024-02-26T11:39:18;9.80;;;3.75;;
61527;SDS011;47395;42.032;-8.634;2024-02-26T11:41:18;9.35;;;3.40;;
61527;SDS011;47395;42.032;-8.634;2024-02-26T11:43:23;12.57;;;3.53;;
61527;SDS011;47395;42.032;-8.634;2024-02-26T11:45:50;12.45;;;3.83;;
61527;SDS011;47395;42.032;-8.634;2024-02-26T11:47:57;13.68;;;3.83;;
61527;SDS011;47395;42.032;-8.634;2024-02-26T11:50:16;13.40;;;3.53;;
61527;SDS011;47395;42.032;-8.634;2024-02-26T11:52:22;13.13;;;4.10;;
61527;SDS011;47395;42.032;-8.634;2024-02-26T11:58:46;13.52;;;4.70;;
61527;SDS011;47395;42.032;-8.634;2024-02-26T12:00:47;16.35;;;4.80;;
61527;SDS011;47395;42.032;-8.634;2024-02-26T12:02:49;13.48;;;4.75;;
61527;SDS011;47395;42.032;-8.634;2024-02-26T12:04:53;14.52;;;3.83;;
61527;SDS011;47395;42.032;-8.634;2024-02-26T12:06:57;14.70;;;5.10;;